createdAt,value
2023-01-20T00:01:30.901Z,54.90
2023-01-20T00:03:57.939Z,55.21
2023-01-20T00:06:26.700Z,55.75
2023-01-20T00:08:55.189Z,54.65
2023-01-20T00:11:21.778Z,56.66
2023-01-20T00:13:48.751Z,56.52
2023-01-20T00:16:15.293Z,55.72
2023-01-20T00:18:41.844Z,56.25
2023-01-20T00:21:11.462Z,55.66
2023-01-20T00:23:39.499Z,55.06
2023-01-20T00:26:11.295Z,55.98
2023-01-20T00:28:38.956Z,56.34
2023-01-20T00:31:27.504Z,56.22
2023-01-20T00:33:56.709Z,55.29
2023-01-20T00:36:24.891Z,55.58
2023-01-20T00:38:51.606Z,54.94
2023-01-20T00:41:19.156Z,55.06
2023-01-20T00:43:45.896Z,55.47
2023-01-20T00:46:12.879Z,55.86
2023-01-20T00:48:39.744Z,55.67
2023-01-20T00:51:08.275Z,54.22
2023-01-20T00:53:35.969Z,54.81
2023-01-20T00:56:02.838Z,55.12
2023-01-20T00:58:29.312Z,54.92
2023-01-20T01:00:55.888Z,54.38
2023-01-20T01:03:23.001Z,54.36
2023-01-20T01:05:49.678Z,56.45
2023-01-20T01:08:16.743Z,55.43
2023-01-20T01:10:43.227Z,55.15
2023-01-20T01:13:10.984Z,55.80
2023-01-20T01:15:37.461Z,55.75
2023-01-20T01:18:04.107Z,56.20
2023-01-20T01:20:30.901Z,56.71
2023-01-20T01:22:57.372Z,55.83
2023-01-20T01:25:23.921Z,55.95
2023-01-20T01:27:50.441Z,56.21
2023-01-20T01:30:17.118Z,54.26
2023-01-20T01:32:43.626Z,53.72
2023-01-20T01:35:10.153Z,52.89
2023-01-20T01:37:36.605Z,52.18
2023-01-20T01:40:03.283Z,52.28
2023-01-20T01:42:29.793Z,52.16
2023-01-20T01:45:12.114Z,51.26
2023-01-20T01:48:01.643Z,50.84
2023-01-20T01:50:39.486Z,51.46
2023-01-20T01:53:08.403Z,50.02
2023-01-20T01:55:39.389Z,50.94
2023-01-20T01:58:11.508Z,52.02
2023-01-20T02:00:38.967Z,52.89
2023-01-20T02:03:06.930Z,54.53
2023-01-20T02:05:36.889Z,54.12
2023-01-20T02:08:04.508Z,54.44
2023-01-20T02:10:30.967Z,57.12
2023-01-20T02:12:59.963Z,56.42
2023-01-20T02:15:35.802Z,55.64
2023-01-20T02:18:44.130Z,56.43
2023-01-20T02:21:47.510Z,55.90
2023-01-20T02:24:13.915Z,57.30
2023-01-20T02:26:58.352Z,56.14
2023-01-20T02:29:49.689Z,56.50
2023-01-20T02:32:47.298Z,56.13
2023-01-20T02:35:32.867Z,56.08
2023-01-20T02:38:16.188Z,56.30
2023-01-20T02:41:03.633Z,56.26
2023-01-20T02:43:37.235Z,57.61
2023-01-20T02:46:10.617Z,58.30
2023-01-20T02:48:51.645Z,58.35
2023-01-20T02:51:34.310Z,57.86
2023-01-20T02:54:07.154Z,58.11
2023-01-20T02:56:36.092Z,58.24
2023-01-20T02:59:08.013Z,59.92
2023-01-20T03:01:42.584Z,59.65
2023-01-20T03:04:15.089Z,60.01
2023-01-20T03:06:50.987Z,62.69
2023-01-20T03:09:25.987Z,63.32
2023-01-20T03:11:58.610Z,62.34
2023-01-20T03:14:25.268Z,62.24
2023-01-20T03:16:52.402Z,62.45
2023-01-20T03:19:20.659Z,62.66
2023-01-20T03:21:48.622Z,63.58
2023-01-20T03:24:15.347Z,64.31
2023-01-20T03:26:41.958Z,63.62
2023-01-20T03:29:10.571Z,63.33
2023-01-20T03:31:45.957Z,64.27
2023-01-20T03:34:19.406Z,64.10
2023-01-20T03:36:47.452Z,64.14
2023-01-20T03:39:14.628Z,65.69
2023-01-20T03:42:01.330Z,65.61
2023-01-20T03:44:53.807Z,65.29
2023-01-20T03:47:27.974Z,62.92
2023-01-20T03:50:16.821Z,61.06
2023-01-20T03:52:53.415Z,59.31
2023-01-20T03:55:35.533Z,59.29
2023-01-20T03:58:13.823Z,58.49
2023-01-20T04:00:44.821Z,59.42
2023-01-20T04:03:21.181Z,60.01
2023-01-20T04:05:50.405Z,59.21
2023-01-20T04:08:21.753Z,59.34
2023-01-20T04:10:51.182Z,60.45
2023-01-20T04:13:17.745Z,59.95
2023-01-20T04:15:45.934Z,61.75
2023-01-20T04:18:14.953Z,61.69
2023-01-20T04:20:46.887Z,59.93
2023-01-20T04:23:37.182Z,57.61
2023-01-20T04:26:03.678Z,57.23
2023-01-20T04:28:30.217Z,58.92
2023-01-20T04:30:56.763Z,59.10
2023-01-20T04:33:23.337Z,58.76
2023-01-20T04:35:49.837Z,58.78
2023-01-20T04:38:16.299Z,56.79
2023-01-20T04:40:42.859Z,56.75
2023-01-20T04:43:09.294Z,57.96
2023-01-20T04:45:35.965Z,57.42
2023-01-20T04:48:06.931Z,58.40
2023-01-20T04:50:37.429Z,58.02
2023-01-20T04:53:03.869Z,57.83
2023-01-20T04:55:32.434Z,58.45
2023-01-20T04:57:58.995Z,58.97
2023-01-20T05:00:25.484Z,59.67
2023-01-20T05:02:52.052Z,60.45
2023-01-20T05:05:18.586Z,61.67
2023-01-20T05:07:45.059Z,59.85
2023-01-20T05:10:13.176Z,59.93
2023-01-20T05:12:39.815Z,59.95
2023-01-20T05:15:06.614Z,59.67
2023-01-20T05:17:33.057Z,59.65
2023-01-20T05:19:59.548Z,60.00
2023-01-20T05:22:25.991Z,60.86
2023-01-20T05:24:52.430Z,60.37
2023-01-20T05:27:18.927Z,59.42
2023-01-20T05:29:45.421Z,59.67
2023-01-20T05:32:11.902Z,59.85
2023-01-20T05:34:38.385Z,60.49
2023-01-20T05:37:04.921Z,58.64
2023-01-20T05:39:31.400Z,58.83
2023-01-20T05:41:57.881Z,58.46
2023-01-20T05:44:24.461Z,57.15
2023-01-20T05:46:50.930Z,55.99
2023-01-20T05:49:17.427Z,56.97
2023-01-20T05:51:43.870Z,55.83
2023-01-20T05:54:10.332Z,56.08
2023-01-20T05:56:36.809Z,56.57
2023-01-20T05:59:03.318Z,55.04
2023-01-20T06:01:29.800Z,54.41
2023-01-20T06:03:56.333Z,54.12
2023-01-20T06:06:22.841Z,53.38
2023-01-20T06:08:52.257Z,52.76
2023-01-20T06:11:19.047Z,52.82
2023-01-20T06:13:49.620Z,53.80
2023-01-20T06:16:17.845Z,52.76
2023-01-20T06:18:44.704Z,53.33
2023-01-20T06:21:11.345Z,53.63
2023-01-20T06:23:37.799Z,53.88
2023-01-20T06:26:07.223Z,53.66
2023-01-20T06:28:34.448Z,53.21
2023-01-20T06:31:03.986Z,53.44
2023-01-20T06:33:31.535Z,54.24
2023-01-20T06:35:58.651Z,54.25
2023-01-20T06:38:28.217Z,55.01
2023-01-20T06:40:59.285Z,54.64
2023-01-20T06:43:27.577Z,54.40
2023-01-20T06:45:58.929Z,53.36
2023-01-20T06:48:25.441Z,54.88
2023-01-20T06:50:51.915Z,54.33
2023-01-20T06:53:18.359Z,54.89
2023-01-20T06:55:53.101Z,54.84
2023-01-20T06:58:19.564Z,54.76
2023-01-20T07:00:46.073Z,55.21
2023-01-20T07:03:14.129Z,55.21
2023-01-20T07:05:40.880Z,55.13
2023-01-20T07:08:07.348Z,55.19
2023-01-20T07:10:33.812Z,54.65
2023-01-20T07:13:00.306Z,54.73
2023-01-20T07:15:26.816Z,55.01
2023-01-20T07:17:53.301Z,54.46
2023-01-20T07:20:19.793Z,53.56
2023-01-20T07:22:46.271Z,53.36
2023-01-20T07:25:13.148Z,53.12
2023-01-20T07:27:39.772Z,53.01
2023-01-20T07:30:06.864Z,53.79
2023-01-20T07:32:33.341Z,54.14
2023-01-20T07:35:01.326Z,53.91
2023-01-20T07:37:27.795Z,53.12
2023-01-20T07:39:54.291Z,53.89
2023-01-20T07:42:20.751Z,53.73
2023-01-20T07:44:47.201Z,53.40
2023-01-20T07:47:13.672Z,54.19
2023-01-20T07:49:40.135Z,53.88
2023-01-20T07:52:06.604Z,53.38
2023-01-20T07:54:33.142Z,54.01
2023-01-20T07:56:59.592Z,51.31
2023-01-20T07:59:26.132Z,49.57
2023-01-20T08:01:52.637Z,49.39
2023-01-20T08:04:19.150Z,48.95
2023-01-20T08:06:45.621Z,48.03
2023-01-20T08:09:12.300Z,47.25
2023-01-20T08:11:38.833Z,46.16
2023-01-20T08:14:05.340Z,45.71
2023-01-20T08:16:31.982Z,45.62
2023-01-20T08:18:58.756Z,45.97
2023-01-20T08:21:28.531Z,46.57
2023-01-20T08:23:56.395Z,46.64
2023-01-20T08:26:23.850Z,45.95
2023-01-20T08:28:50.978Z,46.10
2023-01-20T08:31:21.664Z,45.42
2023-01-20T08:33:51.719Z,46.00
2023-01-20T08:36:22.378Z,46.19
2023-01-20T08:38:49.252Z,45.96
2023-01-20T08:41:19.755Z,45.56
2023-01-20T08:43:46.720Z,46.17
2023-01-20T08:46:15.808Z,47.10
2023-01-20T08:48:43.572Z,46.83
2023-01-20T08:51:14.886Z,46.21
2023-01-20T08:53:42.492Z,46.54
2023-01-20T08:56:10.106Z,47.03
2023-01-20T08:58:36.784Z,47.13
2023-01-20T09:01:15.702Z,47.36
2023-01-20T09:03:49.311Z,47.36
2023-01-20T09:06:26.119Z,47.44
2023-01-20T09:08:53.172Z,47.36
2023-01-20T09:11:22.264Z,47.82
2023-01-20T09:13:48.938Z,47.49
2023-01-20T09:16:17.715Z,47.68
2023-01-20T09:18:44.336Z,47.98
2023-01-20T09:21:11.516Z,47.87
2023-01-20T09:23:39.712Z,48.20
2023-01-20T09:26:08.935Z,48.49
2023-01-20T09:28:35.992Z,49.15
2023-01-20T09:31:09.961Z,49.31
2023-01-20T09:33:38.723Z,50.17
2023-01-20T09:36:07.675Z,51.35
2023-01-20T09:38:34.386Z,50.10
2023-01-20T09:41:29.977Z,50.44
2023-01-20T09:44:08.642Z,49.21
2023-01-20T09:46:58.568Z,49.48
2023-01-20T09:49:38.172Z,49.30
2023-01-20T09:52:19.330Z,49.25
2023-01-20T09:54:56.219Z,48.75
2023-01-20T09:57:27.079Z,48.80
2023-01-20T10:00:15.317Z,48.60
2023-01-20T10:02:49.223Z,48.34
2023-01-20T10:05:24.008Z,48.14
2023-01-20T10:07:58.750Z,48.09
2023-01-20T10:10:36.009Z,47.43
2023-01-20T10:13:31.055Z,47.79
2023-01-20T10:16:04.889Z,48.18
2023-01-20T10:18:39.167Z,47.76
2023-01-20T10:21:26.871Z,49.11
2023-01-20T10:24:06.776Z,48.24
2023-01-20T10:27:01.057Z,47.50
2023-01-20T10:29:35.198Z,48.78
2023-01-20T10:32:06.214Z,48.07
2023-01-20T10:34:45.577Z,48.25
2023-01-20T10:37:13.802Z,47.70
2023-01-20T10:39:48.673Z,46.87
2023-01-20T10:42:17.874Z,46.97
2023-01-20T10:44:48.083Z,47.40
2023-01-20T10:47:52.700Z,46.96
2023-01-20T10:50:43.020Z,46.77
2023-01-20T10:53:09.445Z,46.57
2023-01-20T10:56:03.911Z,47.16
2023-01-20T10:58:37.690Z,47.22
2023-01-20T11:01:07.042Z,45.93
2023-01-20T11:03:41.695Z,46.92
2023-01-20T11:06:25.324Z,46.83
2023-01-20T11:08:52.329Z,46.65
2023-01-20T11:11:22.270Z,47.07
2023-01-20T11:13:50.422Z,47.68
2023-01-20T11:16:21.825Z,46.67
2023-01-20T11:19:14.513Z,47.18
2023-01-20T11:21:41.133Z,47.08
2023-01-20T11:24:44.935Z,46.86
2023-01-20T11:27:17.727Z,47.56
2023-01-20T11:29:52.797Z,47.46
2023-01-20T11:32:32.280Z,47.00
2023-01-20T11:35:00.272Z,46.75
2023-01-20T11:37:36.390Z,45.69
2023-01-20T11:40:16.424Z,46.88
2023-01-20T11:42:46.585Z,47.54
2023-01-20T11:45:45.265Z,46.92
2023-01-20T11:48:16.256Z,48.09
2023-01-20T11:50:49.026Z,48.13
2023-01-20T11:53:22.127Z,48.37
2023-01-20T11:56:01.070Z,48.34
2023-01-20T11:58:52.629Z,48.69
2023-01-20T12:01:28.308Z,48.00
2023-01-20T12:04:24.552Z,48.03
2023-01-20T12:07:03.070Z,48.00
2023-01-20T12:09:37.642Z,47.92
2023-01-20T12:12:20.683Z,47.74
2023-01-20T12:14:59.944Z,47.77
2023-01-20T12:17:51.933Z,47.78
2023-01-20T12:20:53.627Z,48.16
2023-01-20T12:23:41.334Z,46.74
2023-01-20T12:26:10.469Z,46.72
2023-01-20T12:28:47.183Z,46.54
2023-01-20T12:31:17.493Z,46.99
2023-01-20T12:33:45.688Z,46.44
2023-01-20T12:36:36.920Z,46.46
2023-01-20T12:39:47.779Z,45.72
2023-01-20T12:42:37.437Z,46.09
2023-01-20T12:45:21.171Z,45.53
2023-01-20T12:48:18.923Z,45.82
2023-01-20T12:50:48.183Z,46.19
2023-01-20T12:53:51.673Z,45.80
2023-01-20T12:56:29.365Z,46.05
2023-01-20T12:59:17.002Z,45.56
2023-01-20T13:01:55.490Z,45.50
2023-01-20T13:05:04.653Z,45.03
2023-01-20T13:07:46.765Z,45.68
2023-01-20T13:10:25.392Z,45.04
2023-01-20T13:13:16.579Z,46.49
2023-01-20T13:16:03.936Z,46.58
2023-01-20T13:18:59.191Z,46.73
2023-01-20T13:21:25.866Z,46.63
2023-01-20T13:23:52.915Z,46.14
2023-01-20T13:26:20.046Z,47.46
2023-01-20T13:28:55.697Z,46.92
2023-01-20T13:31:29.995Z,46.93
2023-01-20T13:34:30.493Z,45.61
2023-01-20T13:37:03.107Z,46.24
2023-01-20T13:39:37.958Z,46.45
2023-01-20T13:42:26.833Z,46.93
2023-01-20T13:45:11.701Z,47.28
2023-01-20T13:47:47.326Z,47.44
2023-01-20T13:50:27.313Z,47.31
2023-01-20T13:53:05.754Z,47.82
2023-01-20T13:55:41.442Z,48.69
2023-01-20T13:58:26.926Z,47.36
2023-01-20T14:00:57.443Z,47.66
2023-01-20T14:03:31.138Z,47.52
2023-01-20T14:06:09.808Z,47.55
2023-01-20T14:08:50.870Z,47.93
2023-01-20T14:11:23.650Z,47.94
2023-01-20T14:14:05.484Z,48.05
2023-01-20T14:16:35.008Z,47.66
2023-01-20T14:19:24.640Z,47.26
2023-01-20T14:21:54.440Z,46.89
2023-01-20T14:24:28.218Z,47.28
2023-01-20T14:27:07.015Z,48.06
2023-01-20T14:29:33.509Z,48.02
2023-01-20T14:32:00.085Z,47.48
2023-01-20T14:34:32.631Z,47.04
2023-01-20T14:37:15.489Z,46.82
2023-01-20T14:39:49.543Z,47.25
2023-01-20T14:42:19.954Z,46.26
2023-01-20T14:44:48.892Z,46.54
2023-01-20T14:47:16.308Z,46.66
2023-01-20T14:49:46.132Z,45.21
2023-01-20T14:52:20.682Z,45.26
2023-01-20T14:54:48.547Z,44.13
2023-01-20T14:57:29.938Z,43.65
2023-01-20T15:00:10.839Z,44.77
2023-01-20T15:02:39.584Z,46.64
2023-01-20T15:05:30.006Z,47.23
2023-01-20T15:08:11.538Z,47.53
2023-01-20T15:10:39.065Z,47.66
2023-01-20T15:13:25.743Z,47.79
2023-01-20T15:15:52.347Z,48.94
2023-01-20T15:18:21.528Z,50.89
2023-01-20T15:21:11.766Z,52.36
2023-01-20T15:23:44.716Z,53.53
2023-01-20T15:29:24.569Z,57.13
2023-01-20T15:31:51.850Z,59.75
2023-01-20T15:34:19.765Z,60.09
2023-01-20T15:36:47.679Z,60.25
2023-01-20T15:39:16.335Z,60.32
2023-01-20T15:41:43.181Z,62.67
2023-01-20T15:44:09.665Z,61.66
2023-01-20T15:46:36.732Z,60.93
2023-01-20T15:49:03.191Z,62.17
2023-01-20T15:51:29.830Z,60.96
2023-01-20T15:53:56.326Z,60.82
2023-01-20T15:56:30.751Z,61.60
2023-01-20T15:58:57.768Z,60.82
2023-01-20T16:01:26.620Z,59.79
2023-01-20T16:03:54.135Z,59.22
2023-01-20T16:06:26.805Z,58.42
2023-01-20T16:08:53.293Z,58.13
2023-01-20T16:11:19.855Z,57.40
2023-01-20T16:13:46.353Z,56.70
2023-01-20T16:16:19.613Z,55.41
2023-01-20T16:18:47.099Z,53.02
2023-01-20T16:21:17.678Z,53.81
2023-01-20T16:23:45.218Z,54.76
2023-01-20T16:26:23.057Z,53.63
2023-01-20T16:28:54.510Z,50.94
2023-01-20T16:31:22.481Z,51.09
2023-01-20T16:33:49.091Z,51.79
2023-01-20T16:36:17.920Z,52.96
2023-01-20T16:38:45.315Z,54.54
2023-01-20T16:41:17.480Z,54.02
2023-01-20T16:43:43.965Z,54.43
2023-01-20T16:46:14.186Z,56.00
2023-01-20T16:48:41.266Z,56.66
2023-01-20T16:51:14.608Z,56.40
2023-01-20T16:53:41.641Z,56.67
2023-01-20T16:56:20.635Z,57.38
2023-01-20T16:58:47.947Z,56.98
2023-01-20T17:01:14.522Z,57.86
2023-01-20T17:03:42.107Z,56.51
2023-01-20T17:06:16.657Z,55.95
2023-01-20T17:08:52.802Z,56.26
2023-01-20T17:11:21.520Z,56.10
2023-01-20T17:13:48.312Z,56.13
2023-01-20T17:16:15.268Z,56.38
2023-01-20T17:18:42.451Z,55.34
2023-01-20T17:21:08.936Z,55.75
2023-01-20T17:23:35.409Z,56.23
2023-01-20T17:26:03.860Z,56.33
2023-01-20T17:28:30.588Z,56.78
2023-01-20T17:31:02.023Z,55.66
2023-01-20T17:33:28.511Z,56.74
2023-01-20T17:35:59.420Z,56.56
2023-01-20T17:38:27.833Z,57.05
2023-01-20T17:40:54.339Z,55.33
2023-01-20T17:43:20.778Z,56.14
2023-01-20T17:45:47.264Z,55.51
2023-01-20T17:48:13.731Z,56.74
2023-01-20T17:50:40.194Z,57.77
2023-01-20T17:53:06.707Z,57.20
2023-01-20T17:55:33.245Z,56.17
2023-01-20T17:57:59.708Z,57.00
2023-01-20T18:00:26.176Z,56.98
2023-01-20T18:02:55.314Z,57.01
2023-01-20T18:05:21.778Z,56.87
2023-01-20T18:07:51.190Z,58.21
2023-01-20T18:10:17.992Z,57.26
2023-01-20T18:12:44.647Z,59.12
2023-01-20T18:15:11.126Z,59.95
2023-01-20T18:17:37.630Z,59.38
2023-01-20T18:20:04.420Z,59.41
2023-01-20T18:22:30.872Z,60.97
2023-01-20T18:24:57.326Z,59.71
2023-01-20T18:27:23.779Z,60.73
2023-01-20T18:29:50.299Z,60.61
2023-01-20T18:32:16.802Z,62.32
2023-01-20T18:34:43.283Z,61.57
2023-01-20T18:37:09.753Z,61.60
2023-01-20T18:39:36.308Z,59.97
2023-01-20T18:42:02.829Z,59.39
2023-01-20T18:44:29.377Z,59.09
2023-01-20T18:46:55.835Z,59.52
2023-01-20T18:49:22.309Z,59.76
2023-01-20T18:51:48.818Z,59.74
2023-01-20T18:54:19.610Z,57.63
2023-01-20T18:56:46.397Z,57.32
2023-01-20T18:59:13.499Z,57.89
2023-01-20T19:01:41.253Z,58.66
2023-01-20T19:04:11.239Z,59.87
2023-01-20T19:06:42.080Z,58.80
2023-01-20T19:09:08.696Z,59.65
2023-01-20T19:11:39.616Z,59.37
2023-01-20T19:14:08.865Z,59.29
2023-01-20T19:16:36.081Z,59.18
2023-01-20T19:19:04.591Z,60.46
2023-01-20T19:21:31.775Z,60.90
2023-01-20T19:24:01.485Z,63.15
2023-01-20T19:26:28.455Z,62.39
2023-01-20T19:29:01.257Z,63.16
2023-01-20T19:31:31.007Z,64.58
2023-01-20T19:33:58.059Z,64.33
2023-01-20T19:36:25.574Z,64.43
2023-01-20T19:38:52.513Z,65.47
2023-01-20T19:41:25.308Z,64.76
2023-01-20T19:43:56.482Z,64.98
2023-01-20T19:46:31.336Z,66.12
2023-01-20T19:48:58.803Z,66.55
2023-01-20T19:51:26.350Z,66.59
2023-01-20T19:53:58.163Z,65.24
2023-01-20T19:56:27.251Z,65.79
2023-01-20T19:58:55.109Z,65.98
2023-01-20T20:01:23.426Z,65.86
2023-01-20T20:03:52.055Z,65.56
2023-01-20T20:06:30.516Z,65.47
2023-01-20T20:09:10.858Z,64.42
2023-01-20T20:11:38.623Z,64.27
2023-01-20T20:14:08.288Z,60.93
2023-01-20T20:16:37.096Z,60.13
2023-01-20T20:19:04.705Z,58.21
2023-01-20T20:21:31.199Z,58.04
2023-01-20T20:23:59.680Z,57.38
2023-01-20T20:26:29.789Z,57.93
2023-01-20T20:28:58.447Z,57.12
2023-01-20T20:31:25.652Z,55.83
2023-01-20T20:33:52.171Z,54.44
2023-01-20T20:36:18.641Z,54.51
2023-01-20T20:38:50.258Z,55.00
2023-01-20T20:41:18.318Z,54.80
2023-01-20T20:43:44.845Z,53.96
2023-01-20T20:46:15.475Z,54.18
2023-01-20T20:48:42.677Z,54.96
2023-01-20T20:51:15.530Z,53.52
2023-01-20T20:53:43.384Z,53.97
2023-01-20T20:56:13.112Z,53.89
2023-01-20T20:58:55.231Z,54.95
2023-01-20T21:01:28.495Z,54.72
2023-01-20T21:03:55.055Z,54.32
2023-01-20T21:06:21.541Z,53.96
2023-01-20T21:08:47.989Z,53.72
2023-01-20T21:11:14.452Z,53.19
2023-01-20T21:13:40.963Z,55.64
2023-01-20T21:16:13.955Z,56.69
2023-01-20T21:18:41.466Z,57.18
2023-01-20T21:21:11.969Z,57.29
2023-01-20T21:23:38.905Z,59.04
2023-01-20T21:26:12.176Z,59.23
2023-01-20T21:28:39.922Z,59.51
2023-01-20T21:31:12.240Z,59.70
2023-01-20T21:33:40.973Z,60.71
2023-01-20T21:36:09.691Z,60.07
2023-01-20T21:38:36.760Z,59.82
2023-01-20T21:41:04.961Z,58.71
2023-01-20T21:43:33.219Z,58.42
2023-01-20T21:45:59.659Z,58.68
2023-01-20T21:48:26.116Z,58.50
2023-01-20T21:50:52.666Z,58.47
2023-01-20T21:53:19.195Z,59.58
2023-01-20T21:55:45.630Z,58.94
2023-01-20T21:58:12.084Z,58.89
2023-01-20T22:00:38.548Z,58.43
2023-01-20T22:03:04.972Z,57.22
2023-01-20T22:05:31.423Z,56.78
2023-01-20T22:07:57.855Z,56.14
2023-01-20T22:10:24.307Z,54.38
2023-01-20T22:12:50.750Z,53.37
2023-01-20T22:15:17.202Z,54.05
2023-01-20T22:17:43.662Z,53.75
2023-01-20T22:20:10.604Z,53.61
2023-01-20T22:22:37.104Z,54.06
2023-01-20T22:25:03.615Z,53.06
2023-01-20T22:27:30.065Z,52.76
2023-01-20T22:29:56.542Z,51.85
2023-01-20T22:32:23.061Z,51.43
2023-01-20T22:34:49.531Z,51.34
2023-01-20T22:37:15.976Z,51.04
2023-01-20T22:39:42.472Z,52.57
2023-01-20T22:42:08.924Z,52.09
2023-01-20T22:44:35.371Z,52.21
2023-01-20T22:47:01.842Z,51.77
2023-01-20T22:49:28.372Z,51.85
2023-01-20T22:51:54.846Z,51.19
2023-01-20T22:54:21.311Z,52.06
2023-01-20T22:56:47.784Z,51.53
2023-01-20T22:59:14.370Z,52.16
2023-01-20T23:01:40.838Z,51.31
2023-01-20T23:04:07.286Z,51.70
2023-01-20T23:06:35.787Z,51.61
2023-01-20T23:09:05.748Z,51.61
2023-01-20T23:11:32.990Z,50.89
2023-01-20T23:13:59.455Z,51.05
2023-01-20T23:16:25.903Z,51.46
2023-01-20T23:18:52.420Z,51.33
2023-01-20T23:21:20.549Z,51.36
2023-01-20T23:23:47.596Z,52.69
2023-01-20T23:26:16.974Z,52.51
2023-01-20T23:28:44.870Z,52.29
2023-01-20T23:31:14.107Z,52.01
2023-01-20T23:33:43.534Z,52.30
2023-01-20T23:36:19.425Z,52.86
2023-01-20T23:38:46.397Z,53.14
2023-01-20T23:41:14.309Z,52.90
2023-01-20T23:43:41.912Z,53.27
2023-01-20T23:46:09.406Z,53.61
2023-01-20T23:48:36.595Z,53.46
2023-01-20T23:51:03.696Z,53.89
2023-01-20T23:53:32.441Z,53.53
2023-01-20T23:56:04.440Z,53.13
2023-01-20T23:58:31.350Z,52.50
